sensor_id;sensor_type;location;lat;lon;timestamp;temperature;humidity
30250;DHT22;17064;47.974;13.826;2022-12-26T04:02:44;7.00;99.90
30250;DHT22;17064;47.974;13.826;2022-12-26T04:08:13;6.80;99.90
30250;DHT22;17064;47.974;13.826;2022-12-26T04:13:57;6.90;99.90
30250;DHT22;17064;47.974;13.826;2022-12-26T04:24:36;7.00;99.90
30250;DHT22;17064;47.974;13.826;2022-12-26T04:29:58;7.00;99.90
30250;DHT22;17064;47.974;13.826;2022-12-26T04:35:26;6.90;99.90
30250;DHT22;17064;47.974;13.826;2022-12-26T04:40:57;7.00;99.90
30250;DHT22;17064;47.974;13.826;2022-12-26T04:46:22;6.90;99.90
30250;DHT22;17064;47.974;13.826;2022-12-26T04:51:24;6.70;99.90
30250;DHT22;17064;47.974;13.826;2022-12-26T04:56:24;6.60;99.90
30250;DHT22;17064;47.974;13.826;2022-12-26T05:01:25;6.50;99.90
30250;DHT22;17064;47.974;13.826;2022-12-26T05:06:44;6.40;99.90
30250;DHT22;17064;47.974;13.826;2022-12-26T05:12:07;6.40;99.90
30250;DHT22;17064;47.974;13.826;2022-12-26T05:17:09;6.30;99.90
30250;DHT22;17064;47.974;13.826;2022-12-26T05:22:32;6.20;99.90
30250;DHT22;17064;47.974;13.826;2022-12-26T05:27:52;6.20;99.90
30250;DHT22;17064;47.974;13.826;2022-12-26T05:33:11;6.20;99.90
30250;DHT22;17064;47.974;13.826;2022-12-26T05:38:30;6.30;99.90
30250;DHT22;17064;47.974;13.826;2022-12-26T05:43:31;6.30;99.90
30250;DHT22;17064;47.974;13.826;2022-12-26T05:48:32;6.30;99.90
30250;DHT22;17064;47.974;13.826;2022-12-26T05:53:33;6.30;99.90
30250;DHT22;17064;47.974;13.826;2022-12-26T05:58:33;6.20;99.90
30250;DHT22;17064;47.974;13.826;2022-12-26T06:03:35;6.20;99.90
30250;DHT22;17064;47.974;13.826;2022-12-26T06:08:36;6.10;99.90
30250;DHT22;17064;47.974;13.826;2022-12-26T06:13:37;5.90;99.90
30250;DHT22;17064;47.974;13.826;2022-12-26T06:18:38;5.90;99.90
30250;DHT22;17064;47.974;13.826;2022-12-26T06:23:40;5.80;99.90
30250;DHT22;17064;47.974;13.826;2022-12-26T06:28:42;5.70;99.90
30250;DHT22;17064;47.974;13.826;2022-12-26T06:33:43;5.50;99.90
30250;DHT22;17064;47.974;13.826;2022-12-26T06:38:44;5.20;99.90
30250;DHT22;17064;47.974;13.826;2022-12-26T06:43:45;5.10;99.90
30250;DHT22;17064;47.974;13.826;2022-12-26T06:48:46;5.30;99.90
30250;DHT22;17064;47.974;13.826;2022-12-26T06:53:49;5.40;99.90
30250;DHT22;17064;47.974;13.826;2022-12-26T06:59:02;5.50;99.90
30250;DHT22;17064;47.974;13.826;2022-12-26T07:04:03;5.50;99.90
30250;DHT22;17064;47.974;13.826;2022-12-26T07:09:08;5.60;99.90
30250;DHT22;17064;47.974;13.826;2022-12-26T07:14:10;5.70;99.90
30250;DHT22;17064;47.974;13.826;2022-12-26T07:19:12;5.80;99.90
30250;DHT22;17064;47.974;13.826;2022-12-26T07:24:15;5.80;99.90
30250;DHT22;17064;47.974;13.826;2022-12-26T07:29:17;6.00;99.90
30250;DHT22;17064;47.974;13.826;2022-12-26T07:34:18;6.10;99.90
30250;DHT22;17064;47.974;13.826;2022-12-26T07:39:18;6.20;99.90
30250;DHT22;17064;47.974;13.826;2022-12-26T07:44:19;6.30;99.90
30250;DHT22;17064;47.974;13.826;2022-12-26T07:49:20;6.30;99.90
30250;DHT22;17064;47.974;13.826;2022-12-26T07:54:21;6.40;99.90
30250;DHT22;17064;47.974;13.826;2022-12-26T07:59:21;6.70;99.90
30250;DHT22;17064;47.974;13.826;2022-12-26T08:04:22;6.90;99.90
30250;DHT22;17064;47.974;13.826;2022-12-26T08:09:23;7.10;99.90
30250;DHT22;17064;47.974;13.826;2022-12-26T08:14:24;7.20;99.90
30250;DHT22;17064;47.974;13.826;2022-12-26T08:19:25;7.20;99.90
30250;DHT22;17064;47.974;13.826;2022-12-26T08:24:25;7.20;99.90
30250;DHT22;17064;47.974;13.826;2022-12-26T08:29:26;7.20;99.90
30250;DHT22;17064;47.974;13.826;2022-12-26T08:34:34;7.20;99.90
30250;DHT22;17064;47.974;13.826;2022-12-26T08:39:35;7.30;99.90
30250;DHT22;17064;47.974;13.826;2022-12-26T08:44:35;7.60;99.90
30250;DHT22;17064;47.974;13.826;2022-12-26T08:49:36;7.70;99.90
30250;DHT22;17064;47.974;13.826;2022-12-26T08:54:37;7.80;99.90
30250;DHT22;17064;47.974;13.826;2022-12-26T08:59:38;7.90;99.90
30250;DHT22;17064;47.974;13.826;2022-12-26T09:04:38;8.10;99.90
30250;DHT22;17064;47.974;13.826;2022-12-26T09:09:39;8.30;99.90
30250;DHT22;17064;47.974;13.826;2022-12-26T09:14:40;8.30;99.90
30250;DHT22;17064;47.974;13.826;2022-12-26T09:19:41;8.40;99.90
30250;DHT22;17064;47.974;13.826;2022-12-26T09:24:42;8.40;99.90
30250;DHT22;17064;47.974;13.826;2022-12-26T09:29:42;8.40;99.90
30250;DHT22;17064;47.974;13.826;2022-12-26T09:34:43;8.60;99.90
30250;DHT22;17064;47.974;13.826;2022-12-26T09:39:44;8.80;99.90
30250;DHT22;17064;47.974;13.826;2022-12-26T09:49:55;9.10;99.90
30250;DHT22;17064;47.974;13.826;2022-12-26T09:54:59;9.20;99.90
30250;DHT22;17064;47.974;13.826;2022-12-26T10:00:03;9.40;99.90
30250;DHT22;17064;47.974;13.826;2022-12-26T10:05:05;9.60;99.90
30250;DHT22;17064;47.974;13.826;2022-12-26T10:10:13;9.80;99.90
30250;DHT22;17064;47.974;13.826;2022-12-26T10:15:28;10.00;99.90
30250;DHT22;17064;47.974;13.826;2022-12-26T10:26:39;10.30;99.90
30250;DHT22;17064;47.974;13.826;2022-12-26T10:31:58;10.50;99.90
30250;DHT22;17064;47.974;13.826;2022-12-26T10:37:06;10.60;99.90
30250;DHT22;17064;47.974;13.826;2022-12-26T10:47:25;11.20;99.90
30250;DHT22;17064;47.974;13.826;2022-12-26T10:52:46;11.60;99.90
30250;DHT22;17064;47.974;13.826;2022-12-26T10:57:50;11.90;99.90
30250;DHT22;17064;47.974;13.826;2022-12-26T11:03:07;11.90;99.90
30250;DHT22;17064;47.974;13.826;2022-12-26T11:13:20;12.00;99.90
30250;DHT22;17064;47.974;13.826;2022-12-26T11:18:36;12.00;99.90
30250;DHT22;17064;47.974;13.826;2022-12-26T11:23:37;12.00;99.90
30250;DHT22;17064;47.974;13.826;2022-12-26T11:28:37;12.20;99.90
30250;DHT22;17064;47.974;13.826;2022-12-26T11:33:42;12.50;99.90
30250;DHT22;17064;47.974;13.826;2022-12-26T11:39:03;12.90;99.90
30250;DHT22;17064;47.974;13.826;2022-12-26T11:49:35;13.00;99.90
30250;DHT22;17064;47.974;13.826;2022-12-26T11:54:47;13.10;99.90
30250;DHT22;17064;47.974;13.826;2022-12-26T11:59:49;13.40;99.90
30250;DHT22;17064;47.974;13.826;2022-12-26T12:04:54;13.40;99.90
30250;DHT22;17064;47.974;13.826;2022-12-26T12:10:16;13.40;99.70
30250;DHT22;17064;47.974;13.826;2022-12-26T12:16:09;13.90;97.10
30250;DHT22;17064;47.974;13.826;2022-12-26T12:26:54;14.70;95.60
30250;DHT22;17064;47.974;13.826;2022-12-26T12:32:47;15.00;95.20
30250;DHT22;17064;47.974;13.826;2022-12-26T12:48:51;14.70;94.50
30250;DHT22;17064;47.974;13.826;2022-12-26T13:04:26;14.10;96.00
30250;DHT22;17064;47.974;13.826;2022-12-26T13:09:36;13.90;97.50
30250;DHT22;17064;47.974;13.826;2022-12-26T13:14:41;13.70;97.80
30250;DHT22;17064;47.974;13.826;2022-12-26T13:20:05;13.50;98.20
30250;DHT22;17064;47.974;13.826;2022-12-26T13:25:12;13.30;98.50
30250;DHT22;17064;47.974;13.826;2022-12-26T13:30:15;13.10;99.90
30250;DHT22;17064;47.974;13.826;2022-12-26T13:40:36;12.70;99.90
30250;DHT22;17064;47.974;13.826;2022-12-26T13:50:50;12.30;99.90
30250;DHT22;17064;47.974;13.826;2022-12-26T13:55:52;12.10;99.90
30250;DHT22;17064;47.974;13.826;2022-12-26T14:22:03;12.50;99.90
30250;DHT22;17064;47.974;13.826;2022-12-26T14:32:25;12.80;99.90
30250;DHT22;17064;47.974;13.826;2022-12-26T14:58:46;12.20;99.90
30250;DHT22;17064;47.974;13.826;2022-12-26T15:30:28;10.80;99.90
30250;DHT22;17064;47.974;13.826;2022-12-26T15:35:55;10.60;99.90
30250;DHT22;17064;47.974;13.826;2022-12-26T15:46:31;10.30;99.90
30250;DHT22;17064;47.974;13.826;2022-12-26T15:57:18;10.10;99.90
30250;DHT22;17064;47.974;13.826;2022-12-26T16:07:44;9.90;99.90
30250;DHT22;17064;47.974;13.826;2022-12-26T16:13:16;9.70;99.90
30250;DHT22;17064;47.974;13.826;2022-12-26T16:18:27;9.60;99.90
30250;DHT22;17064;47.974;13.826;2022-12-26T16:23:29;9.40;99.90
30250;DHT22;17064;47.974;13.826;2022-12-26T16:28:42;9.40;99.90
30250;DHT22;17064;47.974;13.826;2022-12-26T16:33:43;9.30;99.90
30250;DHT22;17064;47.974;13.826;2022-12-26T16:38:44;9.20;99.90
30250;DHT22;17064;47.974;13.826;2022-12-26T16:43:49;9.10;99.90
30250;DHT22;17064;47.974;13.826;2022-12-26T16:48:59;9.00;99.90
30250;DHT22;17064;47.974;13.826;2022-12-26T16:54:28;8.90;99.90
30250;DHT22;17064;47.974;13.826;2022-12-26T16:59:40;8.80;99.90
30250;DHT22;17064;47.974;13.826;2022-12-26T17:04:50;8.70;99.90
30250;DHT22;17064;47.974;13.826;2022-12-26T17:09:56;8.60;99.90
30250;DHT22;17064;47.974;13.826;2022-12-26T17:14:57;8.50;99.90
30250;DHT22;17064;47.974;13.826;2022-12-26T17:25:26;8.50;99.90
30250;DHT22;17064;47.974;13.826;2022-12-26T17:30:31;8.40;99.90
30250;DHT22;17064;47.974;13.826;2022-12-26T17:35:33;8.40;99.90
30250;DHT22;17064;47.974;13.826;2022-12-26T17:40:37;8.30;99.90
30250;DHT22;17064;47.974;13.826;2022-12-26T17:45:42;8.30;99.90
30250;DHT22;17064;47.974;13.826;2022-12-26T17:50:46;8.30;99.90
30250;DHT22;17064;47.974;13.826;2022-12-26T17:55:48;8.20;99.90
30250;DHT22;17064;47.974;13.826;2022-12-26T18:00:49;8.20;99.90
30250;DHT22;17064;47.974;13.826;2022-12-26T18:05:50;8.20;99.90
30250;DHT22;17064;47.974;13.826;2022-12-26T18:10:52;8.20;99.90
30250;DHT22;17064;47.974;13.826;2022-12-26T18:15:54;8.20;99.90
30250;DHT22;17064;47.974;13.826;2022-12-26T18:20:55;8.20;99.90
30250;DHT22;17064;47.974;13.826;2022-12-26T18:25:58;8.20;99.90
30250;DHT22;17064;47.974;13.826;2022-12-26T18:30:59;8.30;99.90
30250;DHT22;17064;47.974;13.826;2022-12-26T18:36:00;8.30;99.90
30250;DHT22;17064;47.974;13.826;2022-12-26T18:41:01;8.30;99.90
30250;DHT22;17064;47.974;13.826;2022-12-26T18:46:02;8.30;99.90
30250;DHT22;17064;47.974;13.826;2022-12-26T18:51:02;8.20;99.90
30250;DHT22;17064;47.974;13.826;2022-12-26T18:56:06;8.20;99.90
30250;DHT22;17064;47.974;13.826;2022-12-26T19:01:13;8.20;99.90
30250;DHT22;17064;47.974;13.826;2022-12-26T19:06:23;8.20;99.90
30250;DHT22;17064;47.974;13.826;2022-12-26T19:11:24;8.20;99.90
30250;DHT22;17064;47.974;13.826;2022-12-26T19:16:25;8.10;99.90
30250;DHT22;17064;47.974;13.826;2022-12-26T19:21:26;8.00;99.90
30250;DHT22;17064;47.974;13.826;2022-12-26T19:26:27;8.00;99.90
30250;DHT22;17064;47.974;13.826;2022-12-26T19:31:27;8.00;99.90
30250;DHT22;17064;47.974;13.826;2022-12-26T19:36:28;8.00;99.90
30250;DHT22;17064;47.974;13.826;2022-12-26T19:41:29;8.00;99.90
30250;DHT22;17064;47.974;13.826;2022-12-26T19:46:30;7.90;99.90
30250;DHT22;17064;47.974;13.826;2022-12-26T19:51:31;7.90;99.90
30250;DHT22;17064;47.974;13.826;2022-12-26T19:56:32;7.80;99.90
30250;DHT22;17064;47.974;13.826;2022-12-26T20:01:33;7.80;99.90
30250;DHT22;17064;47.974;13.826;2022-12-26T20:06:35;7.80;99.90
30250;DHT22;17064;47.974;13.826;2022-12-26T20:11:39;7.80;99.90
30250;DHT22;17064;47.974;13.826;2022-12-26T20:16:41;7.90;99.90
30250;DHT22;17064;47.974;13.826;2022-12-26T20:21:42;7.90;99.90
30250;DHT22;17064;47.974;13.826;2022-12-26T20:26:43;7.90;99.90
30250;DHT22;17064;47.974;13.826;2022-12-26T20:31:44;8.00;99.90
30250;DHT22;17064;47.974;13.826;2022-12-26T20:36:45;8.00;99.90
30250;DHT22;17064;47.974;13.826;2022-12-26T20:41:46;8.10;99.90
30250;DHT22;17064;47.974;13.826;2022-12-26T20:46:48;8.10;99.90
30250;DHT22;17064;47.974;13.826;2022-12-26T20:51:48;8.10;99.90
30250;DHT22;17064;47.974;13.826;2022-12-26T20:56:49;8.20;99.90
30250;DHT22;17064;47.974;13.826;2022-12-26T21:01:50;8.20;99.90
30250;DHT22;17064;47.974;13.826;2022-12-26T21:06:51;8.20;99.90
30250;DHT22;17064;47.974;13.826;2022-12-26T21:11:52;8.20;99.90
30250;DHT22;17064;47.974;13.826;2022-12-26T21:16:57;8.20;99.90
30250;DHT22;17064;47.974;13.826;2022-12-26T21:21:58;8.20;99.90
30250;DHT22;17064;47.974;13.826;2022-12-26T21:26:59;8.20;99.90
30250;DHT22;17064;47.974;13.826;2022-12-26T21:32:01;8.30;99.90
30250;DHT22;17064;47.974;13.826;2022-12-26T21:37:02;8.30;99.90
30250;DHT22;17064;47.974;13.826;2022-12-26T21:42:21;8.40;99.90
30250;DHT22;17064;47.974;13.826;2022-12-26T21:47:22;8.40;99.90
30250;DHT22;17064;47.974;13.826;2022-12-26T21:52:22;8.40;99.90
30250;DHT22;17064;47.974;13.826;2022-12-26T21:57:23;8.40;99.90
30250;DHT22;17064;47.974;13.826;2022-12-26T22:02:36;8.50;99.90
30250;DHT22;17064;47.974;13.826;2022-12-26T22:07:57;8.50;99.90
30250;DHT22;17064;47.974;13.826;2022-12-26T22:12:59;8.40;99.90
30250;DHT22;17064;47.974;13.826;2022-12-26T22:18:00;8.40;99.90
30250;DHT22;17064;47.974;13.826;2022-12-26T22:23:02;8.30;99.90
30250;DHT22;17064;47.974;13.826;2022-12-26T22:28:03;8.40;99.90
30250;DHT22;17064;47.974;13.826;2022-12-26T22:33:04;8.40;99.90
30250;DHT22;17064;47.974;13.826;2022-12-26T22:38:05;8.50;99.90
30250;DHT22;17064;47.974;13.826;2022-12-26T22:43:05;8.40;99.90
30250;DHT22;17064;47.974;13.826;2022-12-26T22:48:06;8.50;99.90
30250;DHT22;17064;47.974;13.826;2022-12-26T22:53:07;8.40;99.90
30250;DHT22;17064;47.974;13.826;2022-12-26T22:58:07;8.30;99.90
30250;DHT22;17064;47.974;13.826;2022-12-26T23:03:08;8.30;99.90
30250;DHT22;17064;47.974;13.826;2022-12-26T23:08:15;8.30;99.90
30250;DHT22;17064;47.974;13.826;2022-12-26T23:13:17;8.20;99.90
30250;DHT22;17064;47.974;13.826;2022-12-26T23:23:49;8.00;99.90
30250;DHT22;17064;47.974;13.826;2022-12-26T23:28:50;7.90;99.90
30250;DHT22;17064;47.974;13.826;2022-12-26T23:34:09;7.90;99.90
30250;DHT22;17064;47.974;13.826;2022-12-26T23:39:10;7.80;99.90
30250;DHT22;17064;47.974;13.826;2022-12-26T23:44:11;7.70;99.90
30250;DHT22;17064;47.974;13.826;2022-12-26T23:49:13;7.70;99.90
30250;DHT22;17064;47.974;13.826;2022-12-26T23:54:14;7.60;99.90
30250;DHT22;17064;47.974;13.826;2022-12-26T23:59:14;7.60;99.90
